Terminal Aerodrome Forecast
Issued by NWS Mt. Holly, NJ

Home | Current Version | Previous Version | Text Only | Print | Product List | Glossary On
Versions: 1 2 3 4 5 6 7 8 9 10 11 12 13 14 15
000
FTUS41 KPHI 260201 AAA
TAFRDG
TAF AMD
KRDG 260201Z 2602/2624 08012KT P6SM OVC050
     FM260400 07008KT P6SM OVC030
     FM260600 08008KT P6SM OVC015
     FM260800 08008KT 6SM -DZ BR OVC008
     FM261600 09008KT P6SM OVC010
     FM262000 09010KT 3SM -SHRA OVC010=

USA.gov is the U.S. government's official web portal to all federal, state and local government web resources and services.